createdAt,value
2022-09-13T00:00:41.111Z,17.30
2022-09-13T00:03:43.281Z,17.20
2022-09-13T00:06:47.581Z,17.20
2022-09-13T00:09:49.402Z,17.10
2022-09-13T00:12:51.744Z,16.90
2022-09-13T00:15:53.615Z,16.90
2022-09-13T00:18:56.368Z,16.60
2022-09-13T00:22:00.071Z,17.00
2022-09-13T00:25:06.795Z,17.00
2022-09-13T00:28:08.662Z,16.80
2022-09-13T00:31:11.510Z,16.80
2022-09-13T00:34:15.510Z,16.60
2022-09-13T00:37:17.361Z,16.80
2022-09-13T00:40:22.138Z,16.80
2022-09-13T00:43:47.629Z,16.90
2022-09-13T00:46:50.380Z,16.90
2022-09-13T00:49:58.914Z,16.80
2022-09-13T00:53:12.302Z,16.80
2022-09-13T00:56:29.200Z,16.80
2022-09-13T00:59:44.406Z,16.80
2022-09-13T01:03:06.689Z,16.60
2022-09-13T01:06:14.749Z,16.50
2022-09-13T01:09:16.751Z,16.40
2022-09-13T01:12:37.014Z,16.40
2022-09-13T01:15:39.119Z,16.40
2022-09-13T01:18:41.009Z,16.30
2022-09-13T01:22:14.184Z,16.20
2022-09-13T01:25:18.929Z,16.40
2022-09-13T01:28:57.778Z,16.30
2022-09-13T01:32:23.786Z,16.40
2022-09-13T01:35:58.138Z,16.40
2022-09-13T01:39:05.832Z,16.50
2022-09-13T01:42:19.786Z,16.50
2022-09-13T01:45:31.212Z,16.60
2022-09-13T01:48:58.215Z,16.60
2022-09-13T01:52:25.787Z,16.20
2022-09-13T01:55:34.068Z,16.10
2022-09-13T01:58:35.864Z,15.90
2022-09-13T02:01:55.886Z,15.80
2022-09-13T02:05:07.098Z,15.70
2022-09-13T02:08:16.834Z,15.70
2022-09-13T02:11:20.607Z,15.80
2022-09-13T02:14:28.331Z,15.90
2022-09-13T02:17:36.980Z,16.10
2022-09-13T02:20:43.261Z,16.10
2022-09-13T02:23:51.212Z,15.70
2022-09-13T02:26:56.184Z,15.60
2022-09-13T02:30:06.489Z,15.50
2022-09-13T02:33:16.976Z,15.80
2022-09-13T02:36:29.648Z,15.90
2022-09-13T02:39:34.209Z,15.90
2022-09-13T02:42:44.730Z,15.70
2022-09-13T02:46:14.983Z,15.80
2022-09-13T02:49:28.845Z,15.90
2022-09-13T02:52:51.846Z,15.90
2022-09-13T02:56:14.774Z,16.10
2022-09-13T02:59:20.292Z,16.10
2022-09-13T03:02:25.979Z,15.90
2022-09-13T03:08:36.582Z,15.90
2022-09-13T03:12:05.113Z,15.80
2022-09-13T03:15:36.230Z,15.80
2022-09-13T03:18:51.306Z,15.70
2022-09-13T03:22:02.242Z,15.80
2022-09-13T03:25:46.442Z,15.80
2022-09-13T03:28:57.298Z,15.90
2022-09-13T03:32:06.444Z,15.80
2022-09-13T03:35:21.102Z,15.90
2022-09-13T03:38:37.454Z,15.80
2022-09-13T03:41:44.846Z,15.70
2022-09-13T03:44:49.573Z,15.90
2022-09-13T03:47:52.261Z,15.80
2022-09-13T03:50:54.730Z,16.00
2022-09-13T03:54:01.728Z,15.90
2022-09-13T03:57:21.008Z,15.40
2022-09-13T04:00:23.344Z,15.70
2022-09-13T04:03:25.503Z,15.80
2022-09-13T04:06:28.880Z,15.50
2022-09-13T04:09:32.438Z,15.70
2022-09-13T04:12:34.510Z,15.90
2022-09-13T04:15:36.580Z,15.60
2022-09-13T04:18:38.650Z,15.80
2022-09-13T04:21:40.744Z,15.90
2022-09-13T04:24:42.911Z,15.90
2022-09-13T04:27:44.925Z,15.80
2022-09-13T04:30:50.762Z,15.70
2022-09-13T04:33:54.799Z,15.40
2022-09-13T04:36:57.212Z,15.40
2022-09-13T04:39:59.021Z,15.40
2022-09-13T04:43:01.761Z,15.70
2022-09-13T04:46:03.611Z,15.70
2022-09-13T04:49:05.810Z,15.80
2022-09-13T04:52:07.840Z,15.80
2022-09-13T04:55:12.282Z,16.00
2022-09-13T04:58:14.118Z,15.80
2022-09-13T05:01:16.022Z,15.90
2022-09-13T05:04:17.933Z,15.90
2022-09-13T05:07:19.801Z,16.00
2022-09-13T05:10:21.652Z,15.90
2022-09-13T05:13:23.550Z,16.00
2022-09-13T05:16:29.281Z,15.70
2022-09-13T05:19:31.115Z,15.80
2022-09-13T05:22:36.357Z,15.80
2022-09-13T05:25:38.171Z,15.70
2022-09-13T05:28:40.074Z,16.10
2022-09-13T05:31:43.514Z,16.00
2022-09-13T05:34:45.353Z,16.30
2022-09-13T05:37:49.769Z,16.20
2022-09-13T05:40:59.264Z,16.20
2022-09-13T05:44:10.333Z,16.20
2022-09-13T05:47:14.676Z,16.20
2022-09-13T05:50:33.227Z,16.20
2022-09-13T05:53:40.145Z,16.10
2022-09-13T05:56:42.096Z,16.10
2022-09-13T05:59:44.156Z,16.20
2022-09-13T06:02:46.076Z,16.40
2022-09-13T06:05:48.859Z,16.40
2022-09-13T06:08:54.719Z,16.40
2022-09-13T06:11:56.620Z,16.80
2022-09-13T06:14:58.490Z,17.00
2022-09-13T06:18:00.302Z,17.00
2022-09-13T06:21:10.705Z,17.00
2022-09-13T06:24:12.538Z,17.00
2022-09-13T06:27:14.516Z,17.20
2022-09-13T06:30:16.438Z,17.30
2022-09-13T06:33:18.311Z,17.50
2022-09-13T06:36:20.139Z,17.70
2022-09-13T06:39:22.109Z,18.70
2022-09-13T06:42:23.983Z,19.40
2022-09-13T06:45:26.461Z,20.10
2022-09-13T06:48:30.917Z,20.60
2022-09-13T06:51:34.832Z,21.40
2022-09-13T06:54:36.783Z,21.50
2022-09-13T06:57:38.537Z,21.60
2022-09-13T07:00:40.739Z,21.50
2022-09-13T07:03:51.090Z,21.20
2022-09-13T07:06:53.029Z,21.00
2022-09-13T07:09:54.777Z,20.90
2022-09-13T07:12:56.636Z,20.60
2022-09-13T07:16:04.349Z,20.40
2022-09-13T07:19:12.230Z,20.30
2022-09-13T07:22:14.119Z,20.20
2022-09-13T07:25:16.162Z,20.20
2022-09-13T07:28:21.196Z,20.10
2022-09-13T07:31:25.584Z,20.00
2022-09-13T07:34:27.675Z,20.10
2022-09-13T07:37:29.391Z,19.80
2022-09-13T07:40:31.309Z,19.60
2022-09-13T07:43:33.987Z,19.90
2022-09-13T07:46:36.503Z,20.00
2022-09-13T07:49:38.381Z,20.00
2022-09-13T07:52:40.231Z,19.90
2022-09-13T07:55:42.067Z,20.00
2022-09-13T07:58:46.055Z,20.30
2022-09-13T08:01:51.687Z,20.30
2022-09-13T08:04:53.643Z,20.40
2022-09-13T08:07:55.467Z,20.40
2022-09-13T08:10:57.702Z,20.50
2022-09-13T08:14:00.233Z,21.00
2022-09-13T08:17:04.778Z,21.50
2022-09-13T08:20:10.340Z,22.10
2022-09-13T08:23:13.370Z,23.40
2022-09-13T08:26:15.513Z,23.40
2022-09-13T08:29:17.438Z,23.30
2022-09-13T08:32:19.271Z,23.40
2022-09-13T08:35:21.038Z,23.60
2022-09-13T08:38:22.893Z,23.60
2022-09-13T08:41:42.873Z,23.60
2022-09-13T08:44:52.936Z,24.10
2022-09-13T08:48:14.018Z,24.30
2022-09-13T08:51:28.825Z,24.10
2022-09-13T08:54:30.837Z,23.80
2022-09-13T08:57:42.950Z,23.70
2022-09-13T09:00:53.708Z,23.90
2022-09-13T09:04:26.767Z,24.50
2022-09-13T09:07:35.993Z,26.00
2022-09-13T09:10:42.404Z,25.20
2022-09-13T09:14:03.345Z,24.90
2022-09-13T09:17:17.052Z,24.70
2022-09-13T09:20:23.130Z,24.70
2022-09-13T09:23:24.866Z,24.30
2022-09-13T09:26:30.350Z,24.40
2022-09-13T09:29:33.511Z,24.40
2022-09-13T09:33:00.070Z,24.50
2022-09-13T09:36:40.871Z,24.20
2022-09-13T09:39:43.607Z,24.50
2022-09-13T09:42:48.358Z,25.40
2022-09-13T09:45:52.760Z,25.30
2022-09-13T09:49:01.216Z,25.20
2022-09-13T09:52:06.749Z,25.20
2022-09-13T09:55:18.388Z,25.00
2022-09-13T09:58:37.072Z,24.70
2022-09-13T10:01:39.088Z,24.60
2022-09-13T10:04:41.227Z,24.80
2022-09-13T10:07:43.241Z,25.70
2022-09-13T10:10:54.316Z,26.00
2022-09-13T10:14:03.436Z,26.30
2022-09-13T10:17:15.657Z,26.40
2022-09-13T10:20:22.311Z,26.30
2022-09-13T10:23:26.614Z,26.40
2022-09-13T10:26:32.778Z,26.20
2022-09-13T10:29:34.676Z,25.80
2022-09-13T10:32:37.236Z,25.90
2022-09-13T10:35:39.184Z,25.80
2022-09-13T10:38:51.144Z,25.70
2022-09-13T10:41:58.081Z,25.50
2022-09-13T10:45:03.401Z,25.50
2022-09-13T10:48:13.070Z,25.40
2022-09-13T11:03:38.528Z,26.30
2022-09-13T11:07:01.828Z,26.40
2022-09-13T11:10:25.946Z,26.50
2022-09-13T11:13:44.830Z,26.40
2022-09-13T11:17:20.624Z,26.20
2022-09-13T11:20:56.716Z,26.00
2022-09-13T11:24:04.366Z,25.70
2022-09-13T11:27:32.029Z,25.90
2022-09-13T11:30:45.527Z,26.00
2022-09-13T11:34:12.447Z,26.30
2022-09-13T11:37:45.248Z,26.70
2022-09-13T11:41:13.128Z,27.10
2022-09-13T11:44:30.070Z,27.20
2022-09-13T11:48:09.381Z,26.80
2022-09-13T11:51:32.924Z,26.70
2022-09-13T11:55:05.887Z,26.90
2022-09-13T11:58:17.933Z,27.20
2022-09-13T12:01:26.664Z,27.60
2022-09-13T12:04:43.083Z,27.70
2022-09-13T12:07:56.545Z,27.40
2022-09-13T12:11:19.071Z,27.40
2022-09-13T12:14:28.025Z,27.30
2022-09-13T12:17:37.945Z,28.00
2022-09-13T12:21:08.867Z,27.90
2022-09-13T12:24:21.893Z,28.10
2022-09-13T12:27:45.346Z,28.00
2022-09-13T12:30:58.656Z,27.70
2022-09-13T12:34:05.071Z,27.90
2022-09-13T12:37:11.392Z,28.10
2022-09-13T12:41:04.268Z,28.00
2022-09-13T12:44:35.025Z,27.90
2022-09-13T12:47:43.079Z,28.00
2022-09-13T12:50:59.785Z,28.10
2022-09-13T12:54:32.836Z,28.20
2022-09-13T12:57:55.600Z,28.30
2022-09-13T13:01:25.116Z,28.60
2022-09-13T13:04:32.218Z,28.70
2022-09-13T13:07:41.167Z,28.40
2022-09-13T13:10:43.627Z,28.30
2022-09-13T13:14:00.342Z,28.20
2022-09-13T13:17:39.417Z,28.20
2022-09-13T13:20:53.627Z,28.00
2022-09-13T13:24:17.499Z,28.20
2022-09-13T13:27:38.314Z,28.30
2022-09-13T13:30:49.964Z,28.20
2022-09-13T13:33:59.299Z,28.20
2022-09-13T13:37:24.409Z,28.30
2022-09-13T13:40:27.034Z,28.10
2022-09-13T13:43:31.837Z,28.10
2022-09-13T13:46:33.801Z,28.00
2022-09-13T13:49:38.736Z,27.70
2022-09-13T13:52:53.072Z,27.50
2022-09-13T13:56:19.950Z,27.50
2022-09-13T13:59:32.594Z,27.40
2022-09-13T14:02:49.530Z,27.50
2022-09-13T14:05:59.872Z,27.60
2022-09-13T14:09:33.264Z,27.80
2022-09-13T14:12:56.305Z,28.00
2022-09-13T14:16:31.061Z,28.00
2022-09-13T14:19:47.099Z,28.10
2022-09-13T14:22:49.081Z,28.30
2022-09-13T14:25:58.337Z,28.40
2022-09-13T14:29:00.345Z,28.30
2022-09-13T14:32:07.668Z,28.40
2022-09-13T14:35:41.926Z,28.20
2022-09-13T14:38:55.262Z,28.30
2022-09-13T14:42:03.828Z,28.50
2022-09-13T14:45:06.332Z,28.40
2022-09-13T14:48:16.858Z,28.30
2022-09-13T14:51:24.302Z,28.40
2022-09-13T14:54:44.043Z,28.20
2022-09-13T14:57:53.361Z,28.10
2022-09-13T15:01:00.408Z,28.00
2022-09-13T15:04:05.942Z,28.00
2022-09-13T15:07:16.774Z,28.00
2022-09-13T15:10:18.578Z,28.20
2022-09-13T15:13:20.484Z,28.00
2022-09-13T15:16:32.271Z,28.00
2022-09-13T15:19:48.977Z,27.80
2022-09-13T15:22:51.580Z,27.70
2022-09-13T15:26:07.491Z,27.60
2022-09-13T15:29:18.418Z,27.70
2022-09-13T15:32:22.731Z,27.50
2022-09-13T15:35:38.569Z,27.50
2022-09-13T15:39:22.984Z,27.40
2022-09-13T15:42:26.189Z,27.20
2022-09-13T15:45:29.217Z,27.10
2022-09-13T15:48:33.819Z,27.20
2022-09-13T15:51:39.054Z,27.10
2022-09-13T15:54:42.882Z,27.10
2022-09-13T15:57:45.724Z,27.00
2022-09-13T16:00:47.708Z,26.90
2022-09-13T16:03:49.727Z,26.90
2022-09-13T16:06:55.668Z,26.90
2022-09-13T16:09:57.768Z,26.80
2022-09-13T16:12:59.966Z,26.70
2022-09-13T16:16:03.151Z,26.60
2022-09-13T16:19:05.808Z,26.60
2022-09-13T16:22:12.547Z,26.50
2022-09-13T16:25:15.707Z,26.50
2022-09-13T16:28:19.191Z,26.40
2022-09-13T16:31:23.358Z,26.40
2022-09-13T16:34:28.240Z,26.40
2022-09-13T16:37:32.859Z,26.30
2022-09-13T16:40:34.972Z,26.20
2022-09-13T16:43:40.275Z,26.10
2022-09-13T16:46:43.252Z,26.00
2022-09-13T16:49:45.447Z,26.00
2022-09-13T16:52:47.335Z,25.90
2022-09-13T16:55:49.359Z,25.90
2022-09-13T16:58:51.621Z,25.90
2022-09-13T17:01:53.947Z,25.80
2022-09-13T17:04:56.352Z,25.80
2022-09-13T17:07:58.680Z,25.70
2022-09-13T17:11:04.434Z,25.50
2022-09-13T17:14:16.756Z,25.50
2022-09-13T17:17:20.057Z,25.50
2022-09-13T17:20:22.509Z,25.40
2022-09-13T17:23:27.681Z,25.30
2022-09-13T17:26:30.092Z,25.10
2022-09-13T17:29:35.384Z,25.00
2022-09-13T17:32:37.369Z,25.00
2022-09-13T17:35:39.545Z,24.90
2022-09-13T17:38:42.659Z,24.90
2022-09-13T17:41:45.196Z,24.80
2022-09-13T17:44:50.044Z,24.70
2022-09-13T17:47:56.341Z,24.60
2022-09-13T17:51:12.076Z,24.60
2022-09-13T17:54:16.691Z,24.50
2022-09-13T17:57:18.935Z,24.50
2022-09-13T18:00:23.392Z,24.50
2022-09-13T18:03:27.848Z,24.30
2022-09-13T18:06:30.344Z,24.30
2022-09-13T18:09:32.998Z,24.20
2022-09-13T18:12:35.604Z,24.20
2022-09-13T18:15:38.170Z,24.00
2022-09-13T18:18:44.017Z,24.00
2022-09-13T18:21:46.885Z,24.00
2022-09-13T18:24:51.329Z,24.00
2022-09-13T18:27:53.628Z,23.80
2022-09-13T18:30:57.080Z,23.90
2022-09-13T18:34:04.403Z,23.90
2022-09-13T18:37:08.110Z,23.70
2022-09-13T18:40:11.079Z,23.70
2022-09-13T18:43:13.182Z,23.60
2022-09-13T18:46:18.016Z,23.60
2022-09-13T18:49:20.177Z,23.50
2022-09-13T18:52:22.065Z,23.50
2022-09-13T18:55:24.418Z,23.40
2022-09-13T18:58:26.561Z,23.40
2022-09-13T19:01:31.724Z,23.40
2022-09-13T19:04:35.689Z,23.30
2022-09-13T19:07:39.849Z,23.20
2022-09-13T19:10:41.708Z,23.20
2022-09-13T19:13:43.616Z,23.20
2022-09-13T19:16:45.671Z,23.20
2022-09-13T19:19:47.504Z,23.10
2022-09-13T19:22:49.997Z,23.00
2022-09-13T19:25:52.129Z,23.00
2022-09-13T19:28:56.655Z,23.00
2022-09-13T19:31:58.521Z,23.00
2022-09-13T19:35:00.430Z,23.00
2022-09-13T19:38:03.103Z,23.00
2022-09-13T19:41:07.046Z,22.90
2022-09-13T19:44:10.245Z,22.90
2022-09-13T19:50:37.873Z,22.90
2022-09-13T19:53:56.359Z,22.90
2022-09-13T19:56:59.474Z,22.90
2022-09-13T20:00:01.407Z,22.80
2022-09-13T20:03:09.993Z,22.80
2022-09-13T20:06:12.768Z,22.80
2022-09-13T20:09:16.313Z,22.80
2022-09-13T20:12:18.272Z,22.70
2022-09-13T20:15:29.210Z,22.80
2022-09-13T20:18:31.529Z,22.70
2022-09-13T20:21:33.822Z,22.70
2022-09-13T20:24:35.758Z,22.60
2022-09-13T20:27:38.154Z,22.70
2022-09-13T20:30:39.973Z,22.70
2022-09-13T20:33:42.881Z,22.80
2022-09-13T20:36:44.647Z,22.70
2022-09-13T20:39:50.050Z,22.60
2022-09-13T20:42:51.895Z,22.50
2022-09-13T20:45:56.835Z,22.40
2022-09-13T20:48:59.397Z,22.40
2022-09-13T20:52:01.353Z,22.20
2022-09-13T20:55:03.409Z,22.20
2022-09-13T20:58:05.394Z,22.20
2022-09-13T21:01:13.992Z,22.20
2022-09-13T21:04:21.729Z,22.10
2022-09-13T21:07:23.689Z,22.00
2022-09-13T21:10:28.287Z,22.00
2022-09-13T21:13:56.884Z,22.00
2022-09-13T21:16:59.428Z,21.90
2022-09-13T21:20:01.444Z,22.00
2022-09-13T21:23:03.134Z,22.00
2022-09-13T21:26:10.754Z,22.00
2022-09-13T21:29:12.578Z,22.00
2022-09-13T21:32:14.628Z,21.90
2022-09-13T21:35:16.408Z,22.00
2022-09-13T21:38:19.166Z,22.00
2022-09-13T21:41:24.497Z,22.00
2022-09-13T21:44:26.473Z,21.90
2022-09-13T21:47:32.144Z,21.90
2022-09-13T21:50:33.993Z,22.00
2022-09-13T21:53:37.948Z,21.90
2022-09-13T21:56:41.787Z,21.90
2022-09-13T21:59:43.594Z,21.80
2022-09-13T22:02:45.423Z,21.70
2022-09-13T22:05:55.685Z,21.70
2022-09-13T22:09:00.366Z,21.70
2022-09-13T22:12:02.643Z,21.70
2022-09-13T22:15:04.935Z,21.60
2022-09-13T22:18:10.717Z,21.60
2022-09-13T22:21:15.185Z,21.50
2022-09-13T22:24:19.477Z,21.50
2022-09-13T22:27:21.257Z,21.60
2022-09-13T22:30:23.068Z,21.60
2022-09-13T22:33:24.892Z,21.50
2022-09-13T22:36:27.459Z,21.50
2022-09-13T22:39:29.455Z,21.40
2022-09-13T22:42:31.260Z,21.40
2022-09-13T22:45:33.189Z,21.40
2022-09-13T22:48:35.587Z,21.50
2022-09-13T22:51:37.430Z,21.50
2022-09-13T22:54:39.517Z,21.40
2022-09-13T22:57:41.602Z,21.50
2022-09-13T23:00:45.022Z,21.50
2022-09-13T23:03:47.761Z,21.50
2022-09-13T23:06:52.560Z,21.50
2022-09-13T23:09:54.664Z,21.50
2022-09-13T23:12:56.491Z,21.50
2022-09-13T23:16:02.587Z,21.50
2022-09-13T23:19:05.380Z,21.60
2022-09-13T23:22:07.880Z,21.50
2022-09-13T23:25:09.953Z,21.40
2022-09-13T23:28:11.676Z,21.40
2022-09-13T23:31:19.390Z,21.30
2022-09-13T23:34:21.302Z,21.20
2022-09-13T23:37:23.182Z,21.20
2022-09-13T23:40:27.254Z,21.20
2022-09-13T23:43:29.421Z,21.20
2022-09-13T23:46:31.528Z,21.10
2022-09-13T23:49:33.416Z,21.00
2022-09-13T23:52:35.205Z,21.10
2022-09-13T23:55:37.163Z,21.10
2022-09-13T23:58:39.981Z,21.00
